sensor_id;sensor_type;location;lat;lon;timestamp;P1;durP1;ratioP1;P2;durP2;ratioP2
16510;SDS011;8368;48.772;8.754;2024-02-14T00:00:12;3.80;;;3.10;;
16510;SDS011;8368;48.772;8.754;2024-02-14T00:02:43;3.70;;;3.37;;
16510;SDS011;8368;48.772;8.754;2024-02-14T00:05:09;6.60;;;3.60;;
16510;SDS011;8368;48.772;8.754;2024-02-14T00:07:36;4.77;;;3.27;;
16510;SDS011;8368;48.772;8.754;2024-02-14T00:10:02;3.60;;;3.30;;
16510;SDS011;8368;48.772;8.754;2024-02-14T00:12:28;3.83;;;3.07;;
16510;SDS011;8368;48.772;8.754;2024-02-14T00:14:53;3.60;;;3.37;;
16510;SDS011;8368;48.772;8.754;2024-02-14T00:17:19;3.67;;;3.37;;
16510;SDS011;8368;48.772;8.754;2024-02-14T00:19:44;4.30;;;3.40;;
16510;SDS011;8368;48.772;8.754;2024-02-14T00:22:10;4.13;;;2.97;;
16510;SDS011;8368;48.772;8.754;2024-02-14T00:24:35;5.03;;;3.40;;
16510;SDS011;8368;48.772;8.754;2024-02-14T00:27:01;3.90;;;3.57;;
16510;SDS011;8368;48.772;8.754;2024-02-14T00:29:28;3.73;;;3.30;;
16510;SDS011;8368;48.772;8.754;2024-02-14T00:31:53;3.60;;;3.30;;
16510;SDS011;8368;48.772;8.754;2024-02-14T00:34:19;3.53;;;3.23;;
16510;SDS011;8368;48.772;8.754;2024-02-14T00:36:46;6.50;;;2.93;;
16510;SDS011;8368;48.772;8.754;2024-02-14T00:39:11;3.33;;;2.63;;
16510;SDS011;8368;48.772;8.754;2024-02-14T00:41:37;7.63;;;3.33;;
16510;SDS011;8368;48.772;8.754;2024-02-14T00:44:02;4.70;;;3.27;;
16510;SDS011;8368;48.772;8.754;2024-02-14T00:46:28;3.27;;;2.97;;
16510;SDS011;8368;48.772;8.754;2024-02-14T00:48:54;2.57;;;2.40;;
16510;SDS011;8368;48.772;8.754;2024-02-14T00:51:21;2.80;;;2.60;;
16510;SDS011;8368;48.772;8.754;2024-02-14T00:53:46;4.50;;;2.97;;
16510;SDS011;8368;48.772;8.754;2024-02-14T00:56:12;2.73;;;2.50;;
16510;SDS011;8368;48.772;8.754;2024-02-14T00:58:37;2.83;;;2.53;;
16510;SDS011;8368;48.772;8.754;2024-02-14T01:01:04;3.20;;;2.63;;
16510;SDS011;8368;48.772;8.754;2024-02-14T01:03:30;3.03;;;2.30;;
16510;SDS011;8368;48.772;8.754;2024-02-14T01:05:56;5.10;;;3.17;;
16510;SDS011;8368;48.772;8.754;2024-02-14T01:08:22;2.60;;;2.17;;
16510;SDS011;8368;48.772;8.754;2024-02-14T01:10:47;3.87;;;2.80;;
16510;SDS011;8368;48.772;8.754;2024-02-14T01:13:15;6.73;;;2.53;;
16510;SDS011;8368;48.772;8.754;2024-02-14T01:15:40;3.20;;;2.60;;
16510;SDS011;8368;48.772;8.754;2024-02-14T01:18:06;3.20;;;2.37;;
16510;SDS011;8368;48.772;8.754;2024-02-14T01:20:32;3.90;;;2.30;;
16510;SDS011;8368;48.772;8.754;2024-02-14T01:22:57;2.60;;;2.17;;
16510;SDS011;8368;48.772;8.754;2024-02-14T01:25:24;3.03;;;2.47;;
16510;SDS011;8368;48.772;8.754;2024-02-14T01:27:50;3.17;;;2.43;;
16510;SDS011;8368;48.772;8.754;2024-02-14T01:30:17;2.97;;;2.50;;
16510;SDS011;8368;48.772;8.754;2024-02-14T01:32:43;2.40;;;2.20;;
16510;SDS011;8368;48.772;8.754;2024-02-14T01:35:08;2.83;;;2.43;;
16510;SDS011;8368;48.772;8.754;2024-02-14T01:37:34;2.53;;;2.00;;
16510;SDS011;8368;48.772;8.754;2024-02-14T01:40:00;3.73;;;2.50;;
16510;SDS011;8368;48.772;8.754;2024-02-14T01:42:26;4.17;;;2.60;;
16510;SDS011;8368;48.772;8.754;2024-02-14T01:44:52;2.43;;;2.20;;
16510;SDS011;8368;48.772;8.754;2024-02-14T01:47:19;3.90;;;2.50;;
16510;SDS011;8368;48.772;8.754;2024-02-14T01:49:45;2.87;;;2.40;;
16510;SDS011;8368;48.772;8.754;2024-02-14T01:52:12;3.03;;;2.60;;
16510;SDS011;8368;48.772;8.754;2024-02-14T01:54:38;2.17;;;2.07;;
16510;SDS011;8368;48.772;8.754;2024-02-14T01:57:04;5.30;;;2.77;;
16510;SDS011;8368;48.772;8.754;2024-02-14T01:59:30;5.17;;;2.33;;
16510;SDS011;8368;48.772;8.754;2024-02-14T02:01:59;3.53;;;2.33;;
16510;SDS011;8368;48.772;8.754;2024-02-14T02:04:25;2.70;;;2.50;;
16510;SDS011;8368;48.772;8.754;2024-02-14T02:06:50;2.03;;;1.93;;
16510;SDS011;8368;48.772;8.754;2024-02-14T02:09:21;2.70;;;2.50;;
16510;SDS011;8368;48.772;8.754;2024-02-14T02:14:14;3.90;;;2.20;;
16510;SDS011;8368;48.772;8.754;2024-02-14T02:16:39;2.07;;;1.87;;
16510;SDS011;8368;48.772;8.754;2024-02-14T02:19:05;3.23;;;2.40;;
16510;SDS011;8368;48.772;8.754;2024-02-14T02:21:33;2.50;;;2.30;;
16510;SDS011;8368;48.772;8.754;2024-02-14T02:23:59;5.20;;;2.30;;
16510;SDS011;8368;48.772;8.754;2024-02-14T02:26:25;3.10;;;2.27;;
16510;SDS011;8368;48.772;8.754;2024-02-14T02:28:51;2.37;;;2.17;;
16510;SDS011;8368;48.772;8.754;2024-02-14T02:31:18;3.97;;;2.03;;
16510;SDS011;8368;48.772;8.754;2024-02-14T02:33:44;3.80;;;2.70;;
16510;SDS011;8368;48.772;8.754;2024-02-14T02:36:10;2.17;;;2.07;;
16510;SDS011;8368;48.772;8.754;2024-02-14T02:38:36;4.67;;;2.50;;
16510;SDS011;8368;48.772;8.754;2024-02-14T02:41:02;2.50;;;2.20;;
16510;SDS011;8368;48.772;8.754;2024-02-14T02:43:31;3.13;;;2.50;;
16510;SDS011;8368;48.772;8.754;2024-02-14T02:45:57;4.20;;;2.80;;
16510;SDS011;8368;48.772;8.754;2024-02-14T02:48:23;3.70;;;2.03;;
16510;SDS011;8368;48.772;8.754;2024-02-14T02:50:49;3.00;;;2.07;;
16510;SDS011;8368;48.772;8.754;2024-02-14T02:53:14;4.50;;;2.77;;
16510;SDS011;8368;48.772;8.754;2024-02-14T02:55:41;4.03;;;2.03;;
16510;SDS011;8368;48.772;8.754;2024-02-14T02:58:06;2.20;;;2.10;;
16510;SDS011;8368;48.772;8.754;2024-02-14T03:00:32;2.77;;;2.40;;
16510;SDS011;8368;48.772;8.754;2024-02-14T03:02:59;4.37;;;2.17;;
16510;SDS011;8368;48.772;8.754;2024-02-14T03:05:25;2.40;;;2.23;;
16510;SDS011;8368;48.772;8.754;2024-02-14T03:07:51;2.53;;;2.20;;
16510;SDS011;8368;48.772;8.754;2024-02-14T03:10:17;3.33;;;2.67;;
16510;SDS011;8368;48.772;8.754;2024-02-14T03:12:49;4.17;;;2.40;;
16510;SDS011;8368;48.772;8.754;2024-02-14T03:15:15;3.23;;;2.60;;
16510;SDS011;8368;48.772;8.754;2024-02-14T03:17:41;3.27;;;2.63;;
16510;SDS011;8368;48.772;8.754;2024-02-14T03:20:07;3.43;;;2.50;;
16510;SDS011;8368;48.772;8.754;2024-02-14T03:22:40;2.73;;;2.20;;
16510;SDS011;8368;48.772;8.754;2024-02-14T03:25:19;3.23;;;2.37;;
16510;SDS011;8368;48.772;8.754;2024-02-14T03:27:45;4.03;;;2.23;;
16510;SDS011;8368;48.772;8.754;2024-02-14T03:30:14;2.50;;;2.17;;
16510;SDS011;8368;48.772;8.754;2024-02-14T03:32:41;5.07;;;2.40;;
16510;SDS011;8368;48.772;8.754;2024-02-14T03:35:07;4.47;;;2.00;;
16510;SDS011;8368;48.772;8.754;2024-02-14T03:37:32;2.90;;;2.17;;
16510;SDS011;8368;48.772;8.754;2024-02-14T03:39:58;4.17;;;2.23;;
16510;SDS011;8368;48.772;8.754;2024-02-14T03:42:24;4.63;;;2.30;;
16510;SDS011;8368;48.772;8.754;2024-02-14T03:44:51;3.37;;;2.23;;
16510;SDS011;8368;48.772;8.754;2024-02-14T03:47:16;6.07;;;2.80;;
16510;SDS011;8368;48.772;8.754;2024-02-14T03:49:42;5.80;;;2.53;;
16510;SDS011;8368;48.772;8.754;2024-02-14T03:52:07;2.87;;;2.43;;
16510;SDS011;8368;48.772;8.754;2024-02-14T03:54:35;2.57;;;2.37;;
16510;SDS011;8368;48.772;8.754;2024-02-14T03:57:02;4.07;;;2.13;;
16510;SDS011;8368;48.772;8.754;2024-02-14T03:59:29;4.47;;;2.43;;
16510;SDS011;8368;48.772;8.754;2024-02-14T04:01:54;3.20;;;1.87;;
16510;SDS011;8368;48.772;8.754;2024-02-14T04:04:20;2.80;;;2.20;;
16510;SDS011;8368;48.772;8.754;2024-02-14T04:06:46;2.10;;;2.00;;
16510;SDS011;8368;48.772;8.754;2024-02-14T04:09:12;3.23;;;2.23;;
16510;SDS011;8368;48.772;8.754;2024-02-14T04:11:38;2.60;;;2.40;;
16510;SDS011;8368;48.772;8.754;2024-02-14T04:14:03;4.20;;;2.30;;
16510;SDS011;8368;48.772;8.754;2024-02-14T04:16:29;2.60;;;2.40;;
16510;SDS011;8368;48.772;8.754;2024-02-14T04:18:54;2.30;;;2.13;;
16510;SDS011;8368;48.772;8.754;2024-02-14T04:21:21;3.00;;;2.10;;
16510;SDS011;8368;48.772;8.754;2024-02-14T04:23:46;3.30;;;2.33;;
16510;SDS011;8368;48.772;8.754;2024-02-14T04:26:21;5.73;;;2.57;;
16510;SDS011;8368;48.772;8.754;2024-02-14T04:28:47;2.60;;;2.40;;
16510;SDS011;8368;48.772;8.754;2024-02-14T04:31:12;5.57;;;2.20;;
16510;SDS011;8368;48.772;8.754;2024-02-14T04:33:38;2.03;;;1.93;;
16510;SDS011;8368;48.772;8.754;2024-02-14T04:36:03;2.20;;;2.00;;
16510;SDS011;8368;48.772;8.754;2024-02-14T04:38:30;4.70;;;1.90;;
16510;SDS011;8368;48.772;8.754;2024-02-14T04:40:56;4.53;;;2.00;;
16510;SDS011;8368;48.772;8.754;2024-02-14T04:43:23;2.17;;;1.93;;
16510;SDS011;8368;48.772;8.754;2024-02-14T04:45:49;5.00;;;2.07;;
16510;SDS011;8368;48.772;8.754;2024-02-14T04:48:15;4.23;;;1.97;;
16510;SDS011;8368;48.772;8.754;2024-02-14T04:50:41;3.27;;;2.03;;
16510;SDS011;8368;48.772;8.754;2024-02-14T04:53:07;3.23;;;1.80;;
16510;SDS011;8368;48.772;8.754;2024-02-14T04:55:32;2.30;;;1.67;;
16510;SDS011;8368;48.772;8.754;2024-02-14T04:57:58;2.93;;;1.97;;
16510;SDS011;8368;48.772;8.754;2024-02-14T05:00:24;2.23;;;1.70;;
16510;SDS011;8368;48.772;8.754;2024-02-14T05:02:50;1.70;;;1.60;;
16510;SDS011;8368;48.772;8.754;2024-02-14T05:05:16;3.73;;;2.00;;
16510;SDS011;8368;48.772;8.754;2024-02-14T05:07:41;2.83;;;1.50;;
16510;SDS011;8368;48.772;8.754;2024-02-14T05:10:07;1.77;;;1.57;;
16510;SDS011;8368;48.772;8.754;2024-02-14T05:12:33;2.07;;;1.60;;
16510;SDS011;8368;48.772;8.754;2024-02-14T05:14:58;3.07;;;1.87;;
16510;SDS011;8368;48.772;8.754;2024-02-14T05:17:24;4.37;;;1.80;;
16510;SDS011;8368;48.772;8.754;2024-02-14T05:19:49;3.53;;;1.87;;
16510;SDS011;8368;48.772;8.754;2024-02-14T05:22:15;2.10;;;1.70;;
16510;SDS011;8368;48.772;8.754;2024-02-14T05:24:40;3.13;;;1.60;;
16510;SDS011;8368;48.772;8.754;2024-02-14T05:27:06;2.40;;;1.63;;
16510;SDS011;8368;48.772;8.754;2024-02-14T05:29:31;1.93;;;1.63;;
16510;SDS011;8368;48.772;8.754;2024-02-14T05:31:57;3.50;;;1.40;;
16510;SDS011;8368;48.772;8.754;2024-02-14T05:34:22;7.37;;;1.70;;
16510;SDS011;8368;48.772;8.754;2024-02-14T05:36:48;1.67;;;1.50;;
16510;SDS011;8368;48.772;8.754;2024-02-14T05:39:13;1.57;;;1.40;;
16510;SDS011;8368;48.772;8.754;2024-02-14T05:41:40;1.23;;;1.23;;
16510;SDS011;8368;48.772;8.754;2024-02-14T05:44:06;2.73;;;1.60;;
16510;SDS011;8368;48.772;8.754;2024-02-14T05:46:31;2.33;;;1.23;;
16510;SDS011;8368;48.772;8.754;2024-02-14T05:48:57;3.17;;;1.10;;
16510;SDS011;8368;48.772;8.754;2024-02-14T05:51:23;3.53;;;1.27;;
16510;SDS011;8368;48.772;8.754;2024-02-14T05:53:49;1.53;;;1.43;;
16510;SDS011;8368;48.772;8.754;2024-02-14T05:56:14;1.50;;;1.40;;
16510;SDS011;8368;48.772;8.754;2024-02-14T05:58:40;6.17;;;3.50;;
16510;SDS011;8368;48.772;8.754;2024-02-14T06:01:06;1.70;;;1.60;;
16510;SDS011;8368;48.772;8.754;2024-02-14T06:03:31;2.23;;;1.80;;
16510;SDS011;8368;48.772;8.754;2024-02-14T06:05:57;4.30;;;1.60;;
16510;SDS011;8368;48.772;8.754;2024-02-14T06:08:22;1.53;;;1.43;;
16510;SDS011;8368;48.772;8.754;2024-02-14T06:10:52;1.60;;;1.50;;
16510;SDS011;8368;48.772;8.754;2024-02-14T06:13:18;1.73;;;1.10;;
16510;SDS011;8368;48.772;8.754;2024-02-14T06:15:44;1.43;;;1.33;;
16510;SDS011;8368;48.772;8.754;2024-02-14T06:18:09;1.70;;;1.27;;
16510;SDS011;8368;48.772;8.754;2024-02-14T06:20:35;1.20;;;1.20;;
16510;SDS011;8368;48.772;8.754;2024-02-14T06:23:01;3.80;;;1.60;;
16510;SDS011;8368;48.772;8.754;2024-02-14T06:25:26;2.30;;;1.20;;
16510;SDS011;8368;48.772;8.754;2024-02-14T06:27:52;1.30;;;1.20;;
16510;SDS011;8368;48.772;8.754;2024-02-14T06:30:19;1.53;;;1.10;;
16510;SDS011;8368;48.772;8.754;2024-02-14T06:32:44;1.33;;;1.33;;
16510;SDS011;8368;48.772;8.754;2024-02-14T06:35:10;1.17;;;1.10;;
16510;SDS011;8368;48.772;8.754;2024-02-14T06:37:36;2.80;;;1.30;;
16510;SDS011;8368;48.772;8.754;2024-02-14T06:40:01;1.03;;;1.03;;
16510;SDS011;8368;48.772;8.754;2024-02-14T06:42:27;1.53;;;1.00;;
16510;SDS011;8368;48.772;8.754;2024-02-14T06:44:53;1.20;;;1.10;;
16510;SDS011;8368;48.772;8.754;2024-02-14T06:47:18;0.83;;;0.83;;
16510;SDS011;8368;48.772;8.754;2024-02-14T06:49:44;1.23;;;1.10;;
16510;SDS011;8368;48.772;8.754;2024-02-14T06:52:09;1.40;;;1.20;;
16510;SDS011;8368;48.772;8.754;2024-02-14T06:54:35;2.87;;;1.33;;
16510;SDS011;8368;48.772;8.754;2024-02-14T06:57:00;3.17;;;1.60;;
16510;SDS011;8368;48.772;8.754;2024-02-14T06:59:26;3.83;;;1.70;;
16510;SDS011;8368;48.772;8.754;2024-02-14T07:01:51;2.40;;;1.60;;
16510;SDS011;8368;48.772;8.754;2024-02-14T07:04:19;2.00;;;1.50;;
16510;SDS011;8368;48.772;8.754;2024-02-14T07:06:50;2.20;;;1.77;;
16510;SDS011;8368;48.772;8.754;2024-02-14T07:09:16;2.37;;;1.60;;
16510;SDS011;8368;48.772;8.754;2024-02-14T07:11:42;6.67;;;1.97;;
16510;SDS011;8368;48.772;8.754;2024-02-14T07:14:08;1.60;;;1.50;;
16510;SDS011;8368;48.772;8.754;2024-02-14T07:16:33;1.43;;;1.33;;
16510;SDS011;8368;48.772;8.754;2024-02-14T07:18:59;1.60;;;1.47;;
16510;SDS011;8368;48.772;8.754;2024-02-14T07:21:24;3.50;;;1.70;;
16510;SDS011;8368;48.772;8.754;2024-02-14T07:23:50;1.40;;;1.30;;
16510;SDS011;8368;48.772;8.754;2024-02-14T07:26:15;1.30;;;1.30;;
16510;SDS011;8368;48.772;8.754;2024-02-14T07:28:41;1.60;;;1.50;;
16510;SDS011;8368;48.772;8.754;2024-02-14T07:31:06;2.20;;;1.40;;
16510;SDS011;8368;48.772;8.754;2024-02-14T07:33:32;1.83;;;1.60;;
16510;SDS011;8368;48.772;8.754;2024-02-14T07:35:57;1.93;;;1.27;;
16510;SDS011;8368;48.772;8.754;2024-02-14T07:38:23;1.70;;;1.60;;
16510;SDS011;8368;48.772;8.754;2024-02-14T07:40:48;1.50;;;1.43;;
16510;SDS011;8368;48.772;8.754;2024-02-14T07:43:14;3.20;;;1.10;;
16510;SDS011;8368;48.772;8.754;2024-02-14T07:45:39;1.53;;;1.30;;
16510;SDS011;8368;48.772;8.754;2024-02-14T07:48:05;2.67;;;1.57;;
16510;SDS011;8368;48.772;8.754;2024-02-14T07:50:31;1.30;;;1.30;;
16510;SDS011;8368;48.772;8.754;2024-02-14T07:52:57;1.70;;;1.50;;
16510;SDS011;8368;48.772;8.754;2024-02-14T07:55:23;1.13;;;1.13;;
16510;SDS011;8368;48.772;8.754;2024-02-14T07:57:49;2.30;;;1.80;;
16510;SDS011;8368;48.772;8.754;2024-02-14T08:00:14;1.70;;;1.60;;
16510;SDS011;8368;48.772;8.754;2024-02-14T08:02:47;1.90;;;1.53;;
16510;SDS011;8368;48.772;8.754;2024-02-14T08:05:16;4.33;;;2.07;;
16510;SDS011;8368;48.772;8.754;2024-02-14T08:07:41;3.67;;;1.70;;
16510;SDS011;8368;48.772;8.754;2024-02-14T08:10:07;1.60;;;1.50;;
16510;SDS011;8368;48.772;8.754;2024-02-14T08:12:33;5.53;;;3.13;;
16510;SDS011;8368;48.772;8.754;2024-02-14T08:14:59;5.03;;;1.80;;
16510;SDS011;8368;48.772;8.754;2024-02-14T08:17:29;1.70;;;1.50;;
16510;SDS011;8368;48.772;8.754;2024-02-14T08:19:55;2.40;;;1.53;;
16510;SDS011;8368;48.772;8.754;2024-02-14T08:22:20;1.10;;;1.10;;
16510;SDS011;8368;48.772;8.754;2024-02-14T08:24:46;3.30;;;1.50;;
16510;SDS011;8368;48.772;8.754;2024-02-14T08:27:11;1.53;;;1.13;;
16510;SDS011;8368;48.772;8.754;2024-02-14T08:29:37;2.83;;;1.33;;
16510;SDS011;8368;48.772;8.754;2024-02-14T08:32:03;1.67;;;1.53;;
16510;SDS011;8368;48.772;8.754;2024-02-14T08:34:29;2.13;;;1.60;;
16510;SDS011;8368;48.772;8.754;2024-02-14T08:36:55;1.47;;;1.37;;
16510;SDS011;8368;48.772;8.754;2024-02-14T08:39:21;1.77;;;1.67;;
16510;SDS011;8368;48.772;8.754;2024-02-14T08:41:47;1.20;;;1.20;;
16510;SDS011;8368;48.772;8.754;2024-02-14T08:44:12;1.67;;;1.30;;
16510;SDS011;8368;48.772;8.754;2024-02-14T08:46:38;2.53;;;1.30;;
16510;SDS011;8368;48.772;8.754;2024-02-14T08:49:07;1.37;;;1.27;;
16510;SDS011;8368;48.772;8.754;2024-02-14T08:51:37;4.10;;;1.40;;
16510;SDS011;8368;48.772;8.754;2024-02-14T08:54:05;3.60;;;1.30;;
16510;SDS011;8368;48.772;8.754;2024-02-14T08:56:32;1.43;;;1.30;;
16510;SDS011;8368;48.772;8.754;2024-02-14T08:59:01;1.90;;;1.30;;
16510;SDS011;8368;48.772;8.754;2024-02-14T09:01:30;2.43;;;1.63;;
16510;SDS011;8368;48.772;8.754;2024-02-14T09:03:56;1.60;;;1.50;;
16510;SDS011;8368;48.772;8.754;2024-02-14T09:06:23;1.63;;;1.30;;
16510;SDS011;8368;48.772;8.754;2024-02-14T09:08:49;1.87;;;1.40;;
16510;SDS011;8368;48.772;8.754;2024-02-14T09:11:15;1.47;;;1.37;;
16510;SDS011;8368;48.772;8.754;2024-02-14T09:13:41;1.60;;;1.50;;
16510;SDS011;8368;48.772;8.754;2024-02-14T09:16:09;1.70;;;1.33;;
16510;SDS011;8368;48.772;8.754;2024-02-14T09:18:36;1.03;;;1.00;;
16510;SDS011;8368;48.772;8.754;2024-02-14T09:21:02;1.27;;;1.23;;
16510;SDS011;8368;48.772;8.754;2024-02-14T09:23:30;1.50;;;1.10;;
16510;SDS011;8368;48.772;8.754;2024-02-14T09:25:57;1.60;;;1.40;;
16510;SDS011;8368;48.772;8.754;2024-02-14T09:28:23;1.33;;;1.23;;
16510;SDS011;8368;48.772;8.754;2024-02-14T09:30:48;1.60;;;1.40;;
16510;SDS011;8368;48.772;8.754;2024-02-14T09:33:14;1.50;;;1.43;;
16510;SDS011;8368;48.772;8.754;2024-02-14T09:35:39;2.33;;;1.60;;
16510;SDS011;8368;48.772;8.754;2024-02-14T09:38:09;1.07;;;1.00;;
16510;SDS011;8368;48.772;8.754;2024-02-14T09:40:37;1.30;;;1.20;;
16510;SDS011;8368;48.772;8.754;2024-02-14T09:43:04;1.33;;;1.20;;
16510;SDS011;8368;48.772;8.754;2024-02-14T09:45:34;2.03;;;1.33;;
16510;SDS011;8368;48.772;8.754;2024-02-14T09:48:03;1.40;;;1.10;;
16510;SDS011;8368;48.772;8.754;2024-02-14T09:50:29;1.10;;;1.10;;
16510;SDS011;8368;48.772;8.754;2024-02-14T09:52:56;1.10;;;1.10;;
16510;SDS011;8368;48.772;8.754;2024-02-14T09:55:22;2.50;;;1.10;;
16510;SDS011;8368;48.772;8.754;2024-02-14T09:57:49;0.90;;;0.90;;
16510;SDS011;8368;48.772;8.754;2024-02-14T10:00:15;2.67;;;0.90;;
16510;SDS011;8368;48.772;8.754;2024-02-14T10:02:41;0.80;;;0.80;;
16510;SDS011;8368;48.772;8.754;2024-02-14T10:05:07;1.20;;;1.10;;
16510;SDS011;8368;48.772;8.754;2024-02-14T10:07:42;0.90;;;0.90;;
16510;SDS011;8368;48.772;8.754;2024-02-14T10:10:08;1.60;;;0.93;;
16510;SDS011;8368;48.772;8.754;2024-02-14T10:12:34;2.67;;;1.07;;
16510;SDS011;8368;48.772;8.754;2024-02-14T10:15:00;1.13;;;0.80;;
16510;SDS011;8368;48.772;8.754;2024-02-14T10:17:29;0.83;;;0.83;;
16510;SDS011;8368;48.772;8.754;2024-02-14T10:19:58;1.00;;;1.00;;
16510;SDS011;8368;48.772;8.754;2024-02-14T10:22:27;0.80;;;0.80;;
16510;SDS011;8368;48.772;8.754;2024-02-14T10:24:59;0.77;;;0.77;;
16510;SDS011;8368;48.772;8.754;2024-02-14T10:27:25;0.80;;;0.80;;
16510;SDS011;8368;48.772;8.754;2024-02-14T10:29:50;1.13;;;1.10;;
16510;SDS011;8368;48.772;8.754;2024-02-14T10:32:16;1.00;;;1.00;;
16510;SDS011;8368;48.772;8.754;2024-02-14T10:34:43;0.70;;;0.70;;
16510;SDS011;8368;48.772;8.754;2024-02-14T10:37:10;1.30;;;0.90;;
16510;SDS011;8368;48.772;8.754;2024-02-14T10:39:38;0.93;;;0.93;;
16510;SDS011;8368;48.772;8.754;2024-02-14T10:42:06;3.27;;;1.63;;
16510;SDS011;8368;48.772;8.754;2024-02-14T10:44:32;0.90;;;0.90;;
16510;SDS011;8368;48.772;8.754;2024-02-14T10:46:59;0.80;;;0.80;;
16510;SDS011;8368;48.772;8.754;2024-02-14T10:49:28;0.90;;;0.77;;
16510;SDS011;8368;48.772;8.754;2024-02-14T10:51:54;1.23;;;1.13;;
16510;SDS011;8368;48.772;8.754;2024-02-14T10:54:24;2.20;;;1.33;;
16510;SDS011;8368;48.772;8.754;2024-02-14T10:56:50;1.33;;;0.83;;
16510;SDS011;8368;48.772;8.754;2024-02-14T10:59:19;0.83;;;0.83;;
16510;SDS011;8368;48.772;8.754;2024-02-14T11:01:46;0.90;;;0.90;;
16510;SDS011;8368;48.772;8.754;2024-02-14T11:04:12;0.80;;;0.80;;
16510;SDS011;8368;48.772;8.754;2024-02-14T11:06:48;0.90;;;0.90;;
16510;SDS011;8368;48.772;8.754;2024-02-14T11:09:22;1.17;;;0.80;;
16510;SDS011;8368;48.772;8.754;2024-02-14T11:12:01;0.87;;;0.87;;
16510;SDS011;8368;48.772;8.754;2024-02-14T11:14:29;1.83;;;0.80;;
16510;SDS011;8368;48.772;8.754;2024-02-14T11:16:58;1.93;;;1.00;;
16510;SDS011;8368;48.772;8.754;2024-02-14T11:19:30;1.53;;;1.10;;
16510;SDS011;8368;48.772;8.754;2024-02-14T11:22:18;1.60;;;0.93;;
16510;SDS011;8368;48.772;8.754;2024-02-14T11:24:47;1.80;;;0.77;;
16510;SDS011;8368;48.772;8.754;2024-02-14T11:27:13;1.10;;;0.70;;
16510;SDS011;8368;48.772;8.754;2024-02-14T11:29:40;0.50;;;0.50;;
16510;SDS011;8368;48.772;8.754;2024-02-14T11:32:15;1.10;;;0.60;;
16510;SDS011;8368;48.772;8.754;2024-02-14T11:34:43;0.80;;;0.80;;
16510;SDS011;8368;48.772;8.754;2024-02-14T11:37:09;0.60;;;0.60;;
16510;SDS011;8368;48.772;8.754;2024-02-14T11:39:34;0.33;;;0.33;;
16510;SDS011;8368;48.772;8.754;2024-02-14T11:42:01;0.50;;;0.50;;
16510;SDS011;8368;48.772;8.754;2024-02-14T11:44:27;0.60;;;0.60;;
16510;SDS011;8368;48.772;8.754;2024-02-14T11:46:52;1.10;;;0.70;;
16510;SDS011;8368;48.772;8.754;2024-02-14T11:49:19;1.20;;;0.80;;
16510;SDS011;8368;48.772;8.754;2024-02-14T11:51:45;0.73;;;0.60;;
16510;SDS011;8368;48.772;8.754;2024-02-14T11:54:12;0.60;;;0.60;;
16510;SDS011;8368;48.772;8.754;2024-02-14T11:56:38;0.43;;;0.43;;
16510;SDS011;8368;48.772;8.754;2024-02-14T11:59:05;0.60;;;0.60;;
16510;SDS011;8368;48.772;8.754;2024-02-14T12:01:36;0.40;;;0.40;;
16510;SDS011;8368;48.772;8.754;2024-02-14T12:04:06;0.50;;;0.50;;
16510;SDS011;8368;48.772;8.754;2024-02-14T12:06:36;0.40;;;0.40;;
16510;SDS011;8368;48.772;8.754;2024-02-14T12:09:06;0.40;;;0.40;;
16510;SDS011;8368;48.772;8.754;2024-02-14T12:11:34;0.40;;;0.40;;
16510;SDS011;8368;48.772;8.754;2024-02-14T12:14:05;0.40;;;0.40;;
16510;SDS011;8368;48.772;8.754;2024-02-14T12:16:31;0.30;;;0.30;;
16510;SDS011;8368;48.772;8.754;2024-02-14T12:19:03;0.30;;;0.30;;
16510;SDS011;8368;48.772;8.754;2024-02-14T12:21:35;1.17;;;0.40;;
16510;SDS011;8368;48.772;8.754;2024-02-14T12:24:01;1.60;;;0.70;;
16510;SDS011;8368;48.772;8.754;2024-02-14T12:26:29;0.30;;;0.27;;
16510;SDS011;8368;48.772;8.754;2024-02-14T12:28:56;0.50;;;0.50;;
16510;SDS011;8368;48.772;8.754;2024-02-14T12:31:22;0.30;;;0.30;;
16510;SDS011;8368;48.772;8.754;2024-02-14T12:33:48;0.40;;;0.40;;
16510;SDS011;8368;48.772;8.754;2024-02-14T12:36:17;0.50;;;0.50;;
16510;SDS011;8368;48.772;8.754;2024-02-14T12:38:43;0.47;;;0.47;;
16510;SDS011;8368;48.772;8.754;2024-02-14T12:41:09;0.30;;;0.27;;
16510;SDS011;8368;48.772;8.754;2024-02-14T12:43:35;0.30;;;0.30;;
16510;SDS011;8368;48.772;8.754;2024-02-14T12:46:01;0.30;;;0.30;;
16510;SDS011;8368;48.772;8.754;2024-02-14T12:48:26;0.25;;;0.25;;
16510;SDS011;8368;48.772;8.754;2024-02-14T12:50:53;0.30;;;0.30;;
16510;SDS011;8368;48.772;8.754;2024-02-14T12:53:19;0.40;;;0.40;;
16510;SDS011;8368;48.772;8.754;2024-02-14T12:55:46;0.20;;;0.20;;
16510;SDS011;8368;48.772;8.754;2024-02-14T12:58:12;0.30;;;0.30;;
16510;SDS011;8368;48.772;8.754;2024-02-14T13:00:38;0.30;;;0.30;;
16510;SDS011;8368;48.772;8.754;2024-02-14T13:03:03;0.22;;;0.22;;
16510;SDS011;8368;48.772;8.754;2024-02-14T13:05:30;0.30;;;0.30;;
16510;SDS011;8368;48.772;8.754;2024-02-14T13:07:55;0.40;;;0.40;;
16510;SDS011;8368;48.772;8.754;2024-02-14T13:10:21;0.60;;;0.60;;
16510;SDS011;8368;48.772;8.754;2024-02-14T13:12:48;0.20;;;0.20;;
16510;SDS011;8368;48.772;8.754;2024-02-14T13:15:14;0.40;;;0.40;;
16510;SDS011;8368;48.772;8.754;2024-02-14T13:17:41;0.30;;;0.30;;
16510;SDS011;8368;48.772;8.754;2024-02-14T13:20:07;0.30;;;0.30;;
16510;SDS011;8368;48.772;8.754;2024-02-14T13:22:33;0.30;;;0.30;;
16510;SDS011;8368;48.772;8.754;2024-02-14T13:24:58;0.55;;;0.38;;
16510;SDS011;8368;48.772;8.754;2024-02-14T13:27:25;0.30;;;0.30;;
16510;SDS011;8368;48.772;8.754;2024-02-14T13:29:51;0.40;;;0.40;;
16510;SDS011;8368;48.772;8.754;2024-02-14T13:32:16;0.40;;;0.40;;
16510;SDS011;8368;48.772;8.754;2024-02-14T13:34:42;0.20;;;0.20;;
16510;SDS011;8368;48.772;8.754;2024-02-14T13:37:08;0.40;;;0.40;;
16510;SDS011;8368;48.772;8.754;2024-02-14T13:39:34;0.30;;;0.30;;
16510;SDS011;8368;48.772;8.754;2024-02-14T13:42:00;0.33;;;0.33;;
16510;SDS011;8368;48.772;8.754;2024-02-14T13:44:26;0.68;;;0.40;;
16510;SDS011;8368;48.772;8.754;2024-02-14T13:46:52;1.03;;;0.63;;
16510;SDS011;8368;48.772;8.754;2024-02-14T13:49:18;0.47;;;0.47;;
16510;SDS011;8368;48.772;8.754;2024-02-14T13:51:55;0.50;;;0.50;;
16510;SDS011;8368;48.772;8.754;2024-02-14T13:54:23;0.30;;;0.30;;
16510;SDS011;8368;48.772;8.754;2024-02-14T13:56:49;0.60;;;0.50;;
16510;SDS011;8368;48.772;8.754;2024-02-14T13:59:15;0.40;;;0.40;;
16510;SDS011;8368;48.772;8.754;2024-02-14T14:01:41;0.68;;;0.68;;
16510;SDS011;8368;48.772;8.754;2024-02-14T14:04:07;0.40;;;0.40;;
16510;SDS011;8368;48.772;8.754;2024-02-14T14:06:32;0.50;;;0.50;;
16510;SDS011;8368;48.772;8.754;2024-02-14T14:08:59;1.40;;;1.30;;
16510;SDS011;8368;48.772;8.754;2024-02-14T14:11:25;0.60;;;0.60;;
16510;SDS011;8368;48.772;8.754;2024-02-14T14:13:51;0.60;;;0.60;;
16510;SDS011;8368;48.772;8.754;2024-02-14T14:16:16;0.53;;;0.53;;
16510;SDS011;8368;48.772;8.754;2024-02-14T14:18:42;0.30;;;0.30;;
16510;SDS011;8368;48.772;8.754;2024-02-14T14:21:08;0.40;;;0.40;;
16510;SDS011;8368;48.772;8.754;2024-02-14T14:23:33;0.40;;;0.40;;
16510;SDS011;8368;48.772;8.754;2024-02-14T14:25:59;0.40;;;0.40;;
16510;SDS011;8368;48.772;8.754;2024-02-14T14:28:25;0.40;;;0.40;;
16510;SDS011;8368;48.772;8.754;2024-02-14T14:30:51;1.57;;;1.57;;
16510;SDS011;8368;48.772;8.754;2024-02-14T14:33:18;0.50;;;0.50;;
16510;SDS011;8368;48.772;8.754;2024-02-14T14:35:44;0.57;;;0.57;;
16510;SDS011;8368;48.772;8.754;2024-02-14T14:38:10;0.38;;;0.38;;
16510;SDS011;8368;48.772;8.754;2024-02-14T14:40:36;1.02;;;0.50;;
16510;SDS011;8368;48.772;8.754;2024-02-14T14:43:02;0.70;;;0.70;;
16510;SDS011;8368;48.772;8.754;2024-02-14T14:45:28;1.00;;;0.75;;
16510;SDS011;8368;48.772;8.754;2024-02-14T14:47:54;0.40;;;0.40;;
16510;SDS011;8368;48.772;8.754;2024-02-14T14:50:19;1.70;;;0.80;;
16510;SDS011;8368;48.772;8.754;2024-02-14T14:52:46;0.63;;;0.63;;
16510;SDS011;8368;48.772;8.754;2024-02-14T14:55:11;0.47;;;0.47;;
16510;SDS011;8368;48.772;8.754;2024-02-14T14:57:37;0.70;;;0.70;;